Observations for Trim Patrick St
| Time | AQI | Temp °C | Hum % | Pres Pa | CO μg/m³ | H₂S μg/m³ | NO μg/m³ | NO₂ μg/m³ | O₃ μg/m³ | SO₂ μg/m³ | PM1 μg/m³ | PM2.5 μg/m³ | PM10 μg/m³ |
|---|---|---|---|---|---|---|---|---|---|---|---|---|---|
| Friday 28 August 2026 | |||||||||||||
| 13:39 | 2 | 29.6 | 52 | 69,612 | 0 | 0 | 1.23 | 1.07 | 31.83 | 14.09 | 13.14 | 21.44 | 23.58 |
| 13:38 | 2 | 29.6 | 51 | 69,626 | 0 | 0 | 1.13 | 9.79 | 59.91 | 14.44 | 14 | 20.78 | 22.86 |
| 13:37 | 2 | 29.7 | 56 | 69,640 | 0 | 0 | 1.46 | 13.53 | 87.47 | 14.41 | 13.14 | 20.33 | 22.36 |
| 13:36 | 2 | 29.6 | 54 | 69,626 | 0 | 0 | 1.65 | 12.2 | 66.87 | 13.29 | 14.86 | 21.27 | 23.4 |
| 13:35 | 2 | 29.6 | 51 | 69,636 | 0 | 0 | 1.45 | 9 | 65.61 | 13.63 | 14 | 21.59 | 23.74 |
| 13:34 | 2 | 29.5 | 54 | 69,648 | 0 | 0 | 1.68 | 8.44 | 66.87 | 13.83 | 14.86 | 22.79 | 25.07 |
| 13:33 | 2 | 29.5 | 53 | 69,663 | 0 | 0 | 1.6 | 13.03 | 58.62 | 14.19 | 12.29 | 18.38 | 20.21 |
| 13:32 | 2 | 29.5 | 53 | 69,654 | 0 | 0 | 1.6 | 51.01 | 26.22 | 16.9 | 14 | 21.41 | 23.55 |
| 13:31 | 2 | 29.5 | 53 | 69,677 | 0 | 0 | 1.6 | 13.19 | 44.05 | 15.89 | 14.86 | 22.14 | 24.36 |
| 13:30 | 2 | 29.5 | 53 | 69,709 | 0 | 0 | 1.57 | 12.3 | 50.05 | 14.08 | 14 | 21.39 | 23.52 |
| 13:29 | 2 | 29.4 | 51 | 69,752 | 0 | 0 | 1.43 | 12.72 | 36.53 | 15.79 | 14.86 | 23.13 | 25.44 |
| 13:28 | 2 | 29.3 | 54 | 69,812 | 0 | 0 | 1.6 | 6.03 | 9.46 | 15.62 | 16.57 | 25.85 | 28.43 |
| 13:27 | 2 | 29.2 | 58 | 69,883 | 0 | 0 | 1.62 | 12.43 | 66.19 | 13.36 | 14.86 | 22.33 | 24.56 |
| 13:26 | 2 | 29.1 | 52 | 69,909 | 0 | 0 | 1.21 | 7.22 | 61.95 | 13.6 | 14.86 | 22.98 | 25.28 |
| 13:25 | 2 | 28.9 | 56 | 69,976 | 0 | 0 | 1.43 | 6.54 | 51.24 | 14.13 | 16.57 | 24.84 | 27.32 |
| 13:24 | 2 | 28.8 | 52 | 69,997 | 0 | 0 | 1.15 | 6.51 | 64.02 | 13.66 | 14.86 | 22.98 | 25.28 |
| 13:23 | 2 | 28.8 | 54 | 69,966 | 0 | 0 | 1.18 | 1.97 | 63.61 | 13.9 | 14 | 24.29 | 26.72 |
| 13:22 | 2 | 28.8 | 55 | 69,964 | 0 | 0 | 1.29 | 5.16 | 63.98 | 13.07 | 13.14 | 18.89 | 20.77 |
| 13:21 | 2 | 28.8 | 53 | 69,952 | 0 | 0 | 1.2 | 4.32 | 61.11 | 13.54 | 14 | 22.11 | 24.32 |
| 13:20 | 2 | 28.8 | 54 | 69,972 | 0 | 0 | 1.22 | 2.5 | 61.32 | 13.14 | 14 | 23.52 | 25.88 |